createdAt,value
2023-05-22T00:01:16.460Z,11.68
2023-05-22T00:04:06.790Z,10.90
2023-05-22T00:06:55.631Z,12.90
2023-05-22T00:09:44.432Z,11.07
2023-05-22T00:12:33.221Z,9.98
2023-05-22T00:15:22.076Z,11.52
2023-05-22T00:18:10.885Z,10.25
2023-05-22T00:21:00.996Z,10.68
2023-05-22T00:23:49.752Z,11.95
2023-05-22T00:26:38.530Z,12.23
2023-05-22T00:29:27.231Z,10.30
2023-05-22T00:32:16.044Z,11.55
2023-05-22T00:35:04.965Z,10.90
2023-05-22T00:37:55.064Z,11.48
2023-05-22T00:40:43.556Z,13.48
2023-05-22T00:43:32.471Z,13.50
2023-05-22T00:46:23.009Z,11.15
2023-05-22T00:49:11.930Z,11.52
2023-05-22T00:52:00.770Z,10.88
2023-05-22T00:54:51.620Z,11.68
2023-05-22T00:57:41.998Z,13.30
2023-05-22T01:00:34.108Z,10.05
2023-05-22T01:03:27.315Z,9.93
2023-05-22T01:06:18.674Z,10.68
2023-05-22T01:09:07.171Z,10.20
2023-05-22T01:12:07.280Z,11.27
2023-05-22T01:15:05.059Z,11.07
2023-05-22T01:18:11.280Z,9.85
2023-05-22T01:21:04.847Z,10.73
2023-05-22T01:24:36.091Z,11.10
2023-05-22T01:27:42.265Z,9.85
2023-05-22T01:30:56.989Z,11.30
2023-05-22T01:33:49.397Z,11.48
2023-05-22T01:36:39.299Z,12.63
2023-05-22T01:39:29.877Z,11.38
2023-05-22T01:42:18.834Z,11.75
2023-05-22T01:45:10.047Z,10.10
2023-05-22T01:48:00.292Z,12.32
2023-05-22T01:50:50.043Z,12.43
2023-05-22T01:53:42.939Z,13.23
2023-05-22T01:56:35.493Z,13.07
2023-05-22T01:59:28.067Z,11.73
2023-05-22T02:02:18.803Z,12.90
2023-05-22T02:05:12.004Z,13.98
2023-05-22T02:08:02.578Z,11.95
2023-05-22T02:10:51.963Z,11.85
2023-05-22T02:13:41.480Z,12.73
2023-05-22T02:16:31.070Z,12.48
2023-05-22T02:19:20.090Z,11.23
2023-05-22T02:22:13.769Z,10.80
2023-05-22T02:25:03.131Z,11.95
2023-05-22T02:27:51.917Z,11.55
2023-05-22T02:30:40.877Z,10.85
2023-05-22T02:33:30.067Z,12.88
2023-05-22T02:36:19.006Z,12.90
2023-05-22T02:39:09.985Z,12.07
2023-05-22T02:41:58.839Z,11.32
2023-05-22T02:44:47.585Z,13.40
2023-05-22T02:47:36.342Z,12.15
2023-05-22T02:50:25.141Z,13.77
2023-05-22T02:53:14.424Z,13.52
2023-05-22T02:56:04.580Z,12.10
2023-05-22T02:58:53.368Z,14.50
2023-05-22T03:01:42.134Z,14.13
2023-05-22T03:04:30.862Z,13.75
2023-05-22T03:07:20.275Z,14.32
2023-05-22T03:10:09.434Z,14.40
2023-05-22T03:12:59.523Z,15.38
2023-05-22T03:15:48.257Z,14.43
2023-05-22T03:18:37.392Z,12.60
2023-05-22T03:21:26.142Z,13.30
2023-05-22T03:24:14.895Z,13.20
2023-05-22T03:27:03.680Z,13.45
2023-05-22T03:29:53.858Z,13.48
2023-05-22T03:32:42.679Z,12.25
2023-05-22T03:35:31.486Z,12.50
2023-05-22T03:38:20.261Z,13.25
2023-05-22T03:41:08.976Z,13.35
2023-05-22T03:43:58.073Z,12.48
2023-05-22T03:46:48.219Z,12.85
2023-05-22T03:49:36.985Z,12.68
2023-05-22T03:52:25.760Z,12.52
2023-05-22T03:55:14.815Z,12.25
2023-05-22T03:58:03.620Z,12.93
2023-05-22T04:00:52.537Z,12.45
2023-05-22T04:03:42.724Z,13.10
2023-05-22T04:06:33.374Z,12.10
2023-05-22T04:09:22.179Z,12.07
2023-05-22T04:12:11.133Z,12.10
2023-05-22T04:14:59.889Z,11.45
2023-05-22T04:17:49.955Z,11.15
2023-05-22T04:20:40.549Z,12.00
2023-05-22T04:23:29.534Z,11.77
2023-05-22T04:26:20.729Z,10.18
2023-05-22T04:29:10.515Z,11.27
2023-05-22T04:32:00.312Z,10.50
2023-05-22T04:34:50.518Z,11.68
2023-05-22T04:37:42.361Z,11.95
2023-05-22T04:40:33.447Z,11.15
2023-05-22T04:43:23.480Z,12.27
2023-05-22T04:46:12.234Z,11.50
2023-05-22T04:49:02.331Z,11.13
2023-05-22T04:51:51.225Z,11.25
2023-05-22T04:54:41.475Z,11.50
2023-05-22T04:57:30.251Z,11.85
2023-05-22T05:00:19.391Z,12.48
2023-05-22T05:03:08.636Z,12.30
2023-05-22T05:05:59.527Z,10.57
2023-05-22T05:08:49.807Z,12.15
2023-05-22T05:11:39.934Z,11.15
2023-05-22T05:14:28.625Z,10.02
2023-05-22T05:17:17.455Z,11.90
2023-05-22T05:20:07.535Z,11.27
2023-05-22T05:22:56.337Z,11.18
2023-05-22T05:25:45.045Z,10.80
2023-05-22T05:28:35.241Z,12.32
2023-05-22T05:31:24.143Z,10.35
2023-05-22T05:34:13.570Z,11.20
2023-05-22T05:37:02.820Z,11.70
2023-05-22T05:39:51.624Z,10.40
2023-05-22T05:42:40.362Z,10.52
2023-05-22T05:45:30.296Z,9.50
2023-05-22T05:48:18.733Z,11.18
2023-05-22T05:51:07.301Z,9.45
2023-05-22T05:53:55.996Z,11.02
2023-05-22T05:56:44.570Z,10.27
2023-05-22T05:59:32.984Z,10.38
2023-05-22T06:02:22.962Z,9.80
2023-05-22T06:05:11.696Z,10.85
2023-05-22T06:08:00.259Z,10.50
2023-05-22T06:10:49.011Z,10.50
2023-05-22T06:13:38.048Z,10.13
2023-05-22T06:16:26.707Z,10.57
2023-05-22T06:19:16.646Z,9.32
2023-05-22T06:22:05.616Z,10.68
2023-05-22T06:24:54.908Z,10.88
2023-05-22T06:27:43.691Z,11.30
2023-05-22T06:30:40.230Z,9.25
2023-05-22T06:33:29.104Z,10.35
2023-05-22T06:36:19.296Z,9.65
2023-05-22T06:39:08.777Z,11.40
2023-05-22T06:41:57.504Z,10.05
2023-05-22T06:44:46.223Z,10.55
2023-05-22T06:47:34.986Z,9.43
2023-05-22T06:50:23.930Z,9.57
2023-05-22T06:53:14.001Z,10.30
2023-05-22T06:56:02.490Z,9.70
2023-05-22T06:58:50.974Z,9.95
2023-05-22T07:01:39.765Z,9.85
2023-05-22T07:04:28.373Z,10.63
2023-05-22T07:07:16.857Z,11.20
2023-05-22T07:10:07.969Z,10.77
2023-05-22T07:12:56.701Z,10.48
2023-05-22T07:15:46.383Z,11.07
2023-05-22T07:18:35.024Z,10.23
2023-05-22T07:21:24.742Z,10.52
2023-05-22T07:24:13.621Z,11.57
2023-05-22T07:27:04.482Z,10.00
2023-05-22T07:29:52.997Z,9.65
2023-05-22T07:32:41.516Z,9.52
2023-05-22T07:35:30.108Z,11.30
2023-05-22T07:38:18.671Z,8.40
2023-05-22T07:41:07.193Z,9.63
2023-05-22T07:43:57.384Z,9.18
2023-05-22T07:46:45.983Z,8.45
2023-05-22T07:49:34.608Z,8.68
2023-05-22T07:52:23.935Z,9.40
2023-05-22T07:55:12.795Z,9.52
2023-05-22T07:58:04.264Z,8.80
2023-05-22T08:00:54.566Z,9.02
2023-05-22T08:03:43.294Z,8.40
2023-05-22T08:06:32.034Z,7.55
2023-05-22T08:09:21.575Z,7.65
2023-05-22T08:12:10.784Z,7.72
2023-05-22T08:15:00.140Z,8.48
2023-05-22T08:17:50.352Z,8.10
2023-05-22T08:20:39.368Z,9.35
2023-05-22T08:23:28.339Z,8.45
2023-05-22T08:26:17.381Z,8.63
2023-05-22T08:29:06.297Z,8.10
2023-05-22T08:31:56.923Z,6.80
2023-05-22T08:34:47.995Z,9.15
2023-05-22T08:37:37.180Z,7.88
2023-05-22T08:40:29.353Z,7.57
2023-05-22T08:43:18.120Z,7.30
2023-05-22T08:46:08.843Z,7.18
2023-05-22T08:48:58.750Z,7.28
2023-05-22T08:51:53.776Z,6.97
2023-05-22T08:54:43.632Z,6.82
2023-05-22T08:57:32.865Z,7.30
2023-05-22T09:00:23.490Z,6.32
2023-05-22T09:03:13.978Z,6.72
2023-05-22T09:06:03.344Z,6.53
2023-05-22T09:08:53.392Z,7.03
2023-05-22T09:11:41.918Z,6.05
2023-05-22T09:14:38.828Z,7.20
2023-05-22T09:17:27.925Z,6.20
2023-05-22T09:20:16.793Z,6.28
2023-05-22T09:23:14.366Z,6.93
2023-05-22T09:26:04.766Z,6.97
2023-05-22T09:28:53.243Z,6.57
2023-05-22T09:31:45.270Z,6.03
2023-05-22T09:34:34.106Z,5.45
2023-05-22T09:37:22.619Z,5.50
2023-05-22T09:40:14.101Z,5.50
2023-05-22T09:43:08.407Z,5.53
2023-05-22T09:46:04.320Z,5.80
2023-05-22T09:48:53.209Z,6.70
2023-05-22T09:51:43.005Z,6.82
2023-05-22T09:54:33.822Z,5.18
2023-05-22T09:57:23.139Z,5.45
2023-05-22T10:00:18.342Z,5.25
2023-05-22T10:03:12.169Z,6.68
2023-05-22T10:06:02.488Z,7.15
2023-05-22T10:08:55.615Z,6.97
2023-05-22T10:11:45.145Z,5.53
2023-05-22T10:14:35.581Z,7.95
2023-05-22T10:17:25.992Z,6.30
2023-05-22T10:20:15.230Z,7.25
2023-05-22T10:23:04.984Z,6.07
2023-05-22T10:25:54.172Z,5.68
2023-05-22T10:28:46.264Z,6.35
2023-05-22T10:31:47.095Z,6.10
2023-05-22T10:34:40.782Z,5.97
2023-05-22T10:37:39.201Z,5.80
2023-05-22T10:40:30.313Z,6.32
2023-05-22T10:43:19.205Z,5.55
2023-05-22T10:46:09.286Z,6.05
2023-05-22T10:48:59.276Z,4.68
2023-05-22T10:51:49.646Z,5.57
2023-05-22T10:54:42.446Z,6.03
2023-05-22T10:57:35.444Z,5.85
2023-05-22T11:00:26.268Z,4.75
2023-05-22T11:03:18.406Z,5.07
2023-05-22T11:06:07.827Z,5.00
2023-05-22T11:08:59.097Z,5.38
2023-05-22T11:11:48.121Z,4.90
2023-05-22T11:14:38.141Z,5.68
2023-05-22T11:17:28.973Z,5.03
2023-05-22T11:20:20.982Z,5.03
2023-05-22T11:23:10.182Z,5.22
2023-05-22T11:26:18.891Z,5.55
2023-05-22T11:29:09.532Z,5.13
2023-05-22T11:31:59.049Z,5.00
2023-05-22T11:34:50.126Z,5.13
2023-05-22T11:37:42.350Z,4.95
2023-05-22T11:40:31.194Z,5.10
2023-05-22T11:43:33.307Z,5.00
2023-05-22T11:46:22.117Z,5.18
2023-05-22T11:49:13.238Z,4.88
2023-05-22T11:52:01.793Z,4.15
2023-05-22T11:54:50.640Z,5.15
2023-05-22T11:57:39.759Z,4.90
2023-05-22T12:00:30.285Z,5.32
2023-05-22T12:03:19.368Z,4.95
2023-05-22T12:06:08.759Z,4.43
2023-05-22T12:08:57.279Z,4.68
2023-05-22T12:11:48.648Z,4.32
2023-05-22T12:14:37.188Z,5.00
2023-05-22T12:17:29.641Z,6.15
2023-05-22T12:20:18.488Z,5.05
2023-05-22T12:23:07.283Z,5.63
2023-05-22T12:26:00.037Z,5.22
2023-05-22T12:28:48.876Z,4.47
2023-05-22T12:31:38.733Z,4.45
2023-05-22T12:34:29.106Z,4.60
2023-05-22T12:37:21.499Z,4.72
2023-05-22T12:40:11.102Z,4.45
2023-05-22T12:42:59.912Z,4.97
2023-05-22T12:45:48.763Z,4.97
2023-05-22T12:48:37.438Z,4.30
2023-05-22T12:51:30.210Z,4.72
2023-05-22T12:54:19.134Z,4.60
2023-05-22T12:57:07.846Z,4.88
2023-05-22T12:59:56.580Z,5.15
2023-05-22T13:02:45.405Z,3.88
2023-05-22T13:05:34.172Z,4.47
2023-05-22T13:08:25.448Z,4.00
2023-05-22T13:11:14.248Z,4.78
2023-05-22T13:14:03.043Z,4.78
2023-05-22T13:16:51.789Z,4.65
2023-05-22T13:19:40.602Z,4.82
2023-05-22T13:22:29.424Z,4.53
2023-05-22T13:25:20.059Z,5.13
2023-05-22T13:28:08.807Z,5.03
2023-05-22T13:30:57.669Z,4.60
2023-05-22T13:33:46.810Z,4.80
2023-05-22T13:36:35.669Z,5.55
2023-05-22T13:39:24.454Z,4.13
2023-05-22T13:42:14.575Z,4.60
2023-05-22T13:45:03.398Z,5.18
2023-05-22T13:47:52.209Z,4.30
2023-05-22T13:50:41.349Z,5.03
2023-05-22T13:53:30.087Z,5.57
2023-05-22T13:56:18.939Z,4.38
2023-05-22T13:59:09.433Z,4.60
2023-05-22T14:01:58.386Z,4.45
2023-05-22T14:04:48.550Z,5.43
2023-05-22T14:07:37.507Z,4.72
2023-05-22T14:10:26.258Z,5.18
2023-05-22T14:13:15.261Z,4.57
2023-05-22T14:16:05.611Z,4.47
2023-05-22T14:18:54.381Z,4.40
2023-05-22T14:21:43.324Z,4.82
2023-05-22T14:24:32.151Z,4.25
2023-05-22T14:27:20.972Z,4.63
2023-05-22T14:30:13.445Z,4.20
2023-05-22T14:33:03.615Z,4.40
2023-05-22T14:35:52.730Z,4.85
2023-05-22T14:38:41.433Z,4.78
2023-05-22T14:41:30.242Z,4.50
2023-05-22T14:44:19.396Z,4.78
2023-05-22T14:47:08.291Z,5.53
2023-05-22T14:50:10.186Z,4.72
2023-05-22T14:53:06.762Z,4.03
2023-05-22T14:55:55.594Z,4.60
2023-05-22T14:58:44.421Z,4.78
2023-05-22T15:01:33.281Z,5.10
2023-05-22T15:04:22.753Z,4.95
2023-05-22T15:07:12.966Z,4.95
2023-05-22T15:10:02.289Z,5.03
2023-05-22T15:12:51.113Z,4.72
2023-05-22T15:15:40.057Z,4.47
2023-05-22T15:18:29.047Z,4.40
2023-05-22T15:21:18.018Z,5.05
2023-05-22T15:24:08.365Z,4.20
2023-05-22T15:26:57.218Z,4.68
2023-05-22T15:29:46.041Z,4.95
2023-05-22T15:32:34.967Z,4.70
2023-05-22T15:35:23.811Z,4.05
2023-05-22T15:38:13.243Z,4.65
2023-05-22T15:41:03.514Z,4.38
2023-05-22T15:43:53.224Z,4.95
2023-05-22T15:46:42.015Z,5.00
2023-05-22T15:49:31.510Z,5.40
2023-05-22T15:52:22.561Z,5.07
2023-05-22T15:55:11.546Z,4.28
2023-05-22T15:58:06.063Z,4.10
2023-05-22T16:00:54.551Z,4.25
2023-05-22T16:03:43.171Z,4.60
2023-05-22T16:06:32.688Z,4.80
2023-05-22T16:09:21.233Z,4.50
2023-05-22T16:12:10.536Z,4.70
2023-05-22T16:15:01.481Z,4.82
2023-05-22T16:17:51.049Z,4.93
2023-05-22T16:20:40.464Z,4.38
2023-05-22T16:23:29.080Z,4.47
2023-05-22T16:26:17.872Z,4.38
2023-05-22T16:29:09.162Z,4.28
2023-05-22T16:31:59.250Z,4.55
2023-05-22T16:34:47.925Z,3.97
2023-05-22T16:37:36.682Z,4.07
2023-05-22T16:40:25.183Z,3.97
2023-05-22T16:43:13.982Z,5.63
2023-05-22T16:46:02.791Z,4.43
2023-05-22T16:48:52.984Z,4.10
2023-05-22T16:51:41.713Z,4.07
2023-05-22T16:54:30.493Z,4.32
2023-05-22T16:57:19.326Z,4.53
2023-05-22T17:00:10.979Z,4.20
2023-05-22T17:03:00.480Z,3.90
2023-05-22T17:05:51.360Z,4.07
2023-05-22T17:08:40.185Z,5.28
2023-05-22T17:11:28.986Z,4.25
2023-05-22T17:14:17.717Z,4.10
2023-05-22T17:17:06.960Z,4.43
2023-05-22T17:19:55.701Z,4.82
2023-05-22T17:22:45.812Z,5.10
2023-05-22T17:25:34.534Z,5.25
2023-05-22T17:28:23.284Z,4.25
2023-05-22T17:31:12.017Z,5.05
2023-05-22T17:34:00.765Z,4.30
2023-05-22T17:36:49.481Z,5.65
2023-05-22T17:39:39.672Z,4.50
2023-05-22T17:42:28.456Z,5.22
2023-05-22T17:45:17.257Z,5.38
2023-05-22T17:48:06.209Z,5.57
2023-05-22T17:50:55.090Z,4.90
2023-05-22T17:53:43.825Z,4.90
2023-05-22T17:56:33.720Z,5.22
2023-05-22T17:59:22.198Z,3.95
2023-05-22T18:02:10.796Z,4.78
2023-05-22T18:04:59.272Z,4.88
2023-05-22T18:07:47.762Z,4.70
2023-05-22T18:10:36.258Z,4.65
2023-05-22T18:13:26.121Z,4.95
2023-05-22T18:16:14.586Z,5.35
2023-05-22T18:19:03.793Z,5.25
2023-05-22T18:21:53.610Z,4.68
2023-05-22T18:24:42.396Z,5.03
2023-05-22T18:27:31.357Z,5.00
2023-05-22T18:30:21.493Z,5.18
2023-05-22T18:33:10.229Z,4.68
2023-05-22T18:36:00.302Z,4.93
2023-05-22T18:38:49.184Z,5.65
2023-05-22T18:41:38.563Z,5.53
2023-05-22T18:44:27.292Z,4.45
2023-05-22T18:47:17.514Z,5.03
2023-05-22T18:50:06.454Z,5.05
2023-05-22T18:52:55.318Z,5.35
2023-05-22T18:55:44.109Z,5.28
2023-05-22T18:58:32.888Z,4.85
2023-05-22T19:01:21.712Z,6.10
2023-05-22T19:04:11.663Z,4.80
2023-05-22T19:07:00.339Z,5.28
2023-05-22T19:09:49.667Z,5.22
2023-05-22T19:12:38.335Z,5.55
2023-05-22T19:15:26.824Z,5.70
2023-05-22T19:18:15.360Z,5.45
2023-05-22T19:21:05.708Z,5.72
2023-05-22T19:23:54.203Z,5.50
2023-05-22T19:26:42.877Z,5.28
2023-05-22T19:29:31.432Z,5.18
2023-05-22T19:32:19.887Z,5.68
2023-05-22T19:35:09.363Z,6.18
2023-05-22T19:37:59.136Z,6.00
2023-05-22T19:40:47.961Z,6.43
2023-05-22T19:43:36.662Z,5.95
2023-05-22T19:46:25.213Z,5.95
2023-05-22T19:49:13.718Z,5.60
2023-05-22T19:52:02.520Z,5.78
2023-05-22T19:54:52.651Z,6.60
2023-05-22T19:57:44.310Z,6.72
2023-05-22T20:00:33.507Z,7.95
2023-05-22T20:03:23.271Z,7.72
2023-05-22T20:06:12.498Z,9.63
2023-05-22T20:09:01.710Z,9.27
2023-05-22T20:11:51.835Z,8.95
2023-05-22T20:14:40.592Z,8.38
2023-05-22T20:17:29.386Z,9.50
2023-05-22T20:20:18.304Z,9.48
2023-05-22T20:23:07.015Z,10.70
2023-05-22T20:25:55.754Z,9.40
2023-05-22T20:28:45.815Z,8.60
2023-05-22T20:31:34.859Z,10.15
2023-05-22T20:34:26.663Z,9.20
2023-05-22T20:37:15.661Z,8.68
2023-05-22T20:40:09.500Z,9.05
2023-05-22T20:42:58.167Z,9.40
2023-05-22T20:45:48.344Z,9.55
2023-05-22T20:48:36.942Z,9.20
2023-05-22T20:51:31.579Z,7.45
2023-05-22T20:54:20.390Z,8.93
2023-05-22T20:57:08.956Z,9.77
2023-05-22T20:59:58.277Z,9.02
2023-05-22T21:02:48.498Z,9.82
2023-05-22T21:05:37.262Z,10.15
2023-05-22T21:08:25.773Z,8.18
2023-05-22T21:11:14.275Z,10.15
2023-05-22T21:14:02.755Z,8.43
2023-05-22T21:16:51.248Z,8.95
2023-05-22T21:19:41.114Z,9.02
2023-05-22T21:22:29.611Z,9.13
2023-05-22T21:25:18.093Z,7.88
2023-05-22T21:28:07.696Z,8.23
2023-05-22T21:30:56.258Z,9.02
2023-05-22T21:33:44.965Z,10.73
2023-05-22T21:36:35.092Z,9.80
2023-05-22T21:39:23.969Z,8.73
2023-05-22T21:42:12.643Z,9.85
2023-05-22T21:45:01.573Z,8.38
2023-05-22T21:47:50.381Z,9.25
2023-05-22T21:50:39.655Z,9.48
2023-05-22T21:53:29.968Z,8.60
2023-05-22T21:56:18.930Z,9.23
2023-05-22T21:59:07.768Z,8.80
2023-05-22T22:01:56.575Z,9.90
2023-05-22T22:04:45.529Z,10.10
2023-05-22T22:07:34.529Z,9.35
2023-05-22T22:10:24.701Z,9.77
2023-05-22T22:13:13.488Z,9.57
2023-05-22T22:16:02.261Z,10.52
2023-05-22T22:18:51.365Z,10.23
2023-05-22T22:21:41.354Z,8.55
2023-05-22T22:24:30.194Z,9.20
2023-05-22T22:27:20.868Z,10.85
2023-05-22T22:30:10.392Z,10.32
2023-05-22T22:32:59.184Z,9.18
2023-05-22T22:35:47.917Z,9.18
2023-05-22T22:38:38.524Z,8.63
2023-05-22T22:41:27.435Z,9.75
2023-05-22T22:44:17.607Z,9.02
2023-05-22T22:47:07.721Z,9.63
2023-05-22T22:49:57.961Z,10.32
2023-05-22T22:52:46.719Z,9.50
2023-05-22T22:55:35.796Z,9.18
2023-05-22T22:58:24.746Z,9.30
2023-05-22T23:01:14.956Z,9.60
2023-05-22T23:04:03.755Z,9.38
2023-05-22T23:06:52.669Z,9.30
2023-05-22T23:09:41.446Z,9.52
2023-05-22T23:12:32.818Z,9.10
2023-05-22T23:15:21.813Z,8.85
2023-05-22T23:18:13.504Z,8.80
2023-05-22T23:21:02.392Z,9.60
2023-05-22T23:23:51.133Z,9.35
2023-05-22T23:26:39.900Z,9.35
2023-05-22T23:29:28.677Z,9.63
2023-05-22T23:32:17.398Z,9.00
2023-05-22T23:35:09.592Z,9.35
2023-05-22T23:37:58.418Z,10.85
2023-05-22T23:40:47.169Z,9.50
2023-05-22T23:43:36.030Z,9.98
2023-05-22T23:46:24.876Z,8.55
2023-05-22T23:49:15.386Z,8.75
2023-05-22T23:52:05.676Z,9.43
2023-05-22T23:54:54.447Z,10.57
2023-05-22T23:57:43.169Z,9.18
